East Pembroke, New York
Current Conditions -  °F | °C
As of 7:54 AM on Wednesday 22 Oct 2014 (Local Time) from KBUF Reporting Station
Overcast Overcast  
Wind Chill: 41°   Ceiling: 2100
Heat Index: 45°   Visibility: 10mi
Dew Point: 39°   Wind: 7mph
Humidity: 80%   Direction: 10°N
Pressure: 30.19"   Gusts: NA
Location:  43°N, 78.31°W
Report Text: KBUF 221154Z 01006KT 10SM OVC021 07/04 A3019 RMK AO2 SLP228 60000 70005 T00720039 10072 20067 53017
Loading
Personal Weather Stations






























Interactive Weather Map
Tropical Storm Tracking
New forecast layout! Learn more

10-Day Weather Forecast

Advertisements
Track Severe Weather on mobile